»·PEaware :: N378SM KLAX-KLAS

N378SM :: KLAX-KLAS

FLIGHT INFORMATION

Flight Status: Arrived
Operator: Privately registered:
United States
More flights under this callsign
Pilot: Scott M. (2435)
Aircraft: FAIRCHILD DORNIER 328JET ENVOY 3
(J328)
More flights by this aircraft type
Origin: KLAX Los Angeles Intl
United States
Destination: KLAS McCarran Intl
United States
More flights between these airports :: More routes between these airports
Route: LOOP7 DAG KEPEC3
File this flight plan on PilotEdge
Remarks:
Altitude:
(Current/Filed)
25,000ft
Speed:
(Current/Filed)
430kts
Departed: 06-Sep-14 07:16 AM
Arrived: 06-Sep-14 08:07 AM
Distance/Time
Traveled:
206nm/0:51
Distance/Time
To Go:
Arrived

Flight Plot

Page will automatically refresh every two minutes.


Map Options




Map Legend


Flown Route
Filed Route
Departure Airport
Arrival Airport
Navaid (VOR, NDB)
Fix

Horizontal Profiles

Position Reports

Time Latitude Longitude Heading Altitude Ground
Speed
06-Sep-14 06:56 33.941820 -118.393589 270 128ft 0kts
06-Sep-14 06:57 33.941820 -118.393589 270 128ft 0kts
06-Sep-14 06:58 33.941820 -118.393589 270 128ft 0kts
06-Sep-14 06:59 33.941820 -118.393589 270 128ft 0kts
06-Sep-14 07:00 33.941820 -118.393589 270 128ft 0kts
06-Sep-14 07:01 33.941820 -118.393589 270 128ft 0kts
06-Sep-14 07:02 33.941820 -118.393589 270 128ft 0kts
06-Sep-14 07:03 33.941820 -118.393589 270 128ft 0kts
06-Sep-14 07:04 33.941820 -118.393589 270 128ft 0kts
06-Sep-14 07:05 33.941820 -118.393589 270 128ft 0kts
06-Sep-14 07:06 33.941820 -118.393589 270 128ft 0kts
06-Sep-14 07:07 33.941820 -118.393589 270 128ft 0kts
06-Sep-14 07:08 33.941820 -118.393589 270 128ft 0kts
06-Sep-14 07:09 33.941820 -118.393589 270 128ft 0kts
06-Sep-14 07:10 33.941794 -118.393778 246 128ft 5kts
06-Sep-14 07:11 33.940822 -118.392370 138 128ft 13kts
06-Sep-14 07:12 33.939958 -118.388493 82 128ft 16kts
06-Sep-14 07:13 33.940633 -118.381855 83 128ft 19kts
06-Sep-14 07:14 33.940673 -118.380613 112 128ft 0kts
06-Sep-14 07:15 33.939517 -118.383368 263 128ft 80kts
06-Sep-14 07:16 33.934146 -118.438377 263 2001ft 188kts
06-Sep-14 07:17 33.918774 -118.496083 247 4470ft 178kts
06-Sep-14 07:18 33.887402 -118.543200 171 7022ft 214kts
06-Sep-14 07:19 33.884549 -118.485574 50 9619ft 226kts
06-Sep-14 07:20 33.930010 -118.434798 43 12202ft 214kts
06-Sep-14 07:21 33.968557 -118.379309 55 14126ft 221kts
06-Sep-14 07:22 34.001303 -118.315670 58 16007ft 228kts
06-Sep-14 07:23 34.036392 -118.250980 55 17845ft 235kts
06-Sep-14 07:24 34.073495 -118.184796 55 19636ft 242kts
06-Sep-14 07:25 34.111718 -118.117047 55 21334ft 248kts
06-Sep-14 07:26 34.151004 -118.047198 55 22885ft 255kts
06-Sep-14 07:27 34.191162 -117.975672 55 24293ft 261kts
06-Sep-14 07:28 34.234916 -117.897616 56 24998ft 334kts
06-Sep-14 07:29 34.290116 -117.799091 56 24996ft 357kts
06-Sep-14 07:30 34.345634 -117.699670 56 25037ft 357kts
06-Sep-14 07:31 34.401206 -117.599803 56 25083ft 357kts
06-Sep-14 07:32 34.456587 -117.499986 56 25090ft 357kts
06-Sep-14 07:33 34.512079 -117.399693 56 25090ft 357kts
06-Sep-14 07:34 34.567158 -117.300202 55 25090ft 357kts
06-Sep-14 07:35 34.623162 -117.200338 55 25090ft 357kts
06-Sep-14 07:36 34.669312 -117.116816 56 25090ft 357kts
06-Sep-14 07:37 34.733531 -116.999496 55 25062ft 359kts
06-Sep-14 07:38 34.788965 -116.897876 56 25047ft 359kts
06-Sep-14 07:39 34.834851 -116.813735 56 25040ft 358kts
06-Sep-14 07:40 34.898955 -116.695683 56 25040ft 358kts
06-Sep-14 07:41 34.953825 -116.594209 56 25041ft 357kts
06-Sep-14 07:42 35.008356 -116.517718 44 24862ft 364kts
06-Sep-14 07:43 35.079778 -116.431941 45 24268ft 356kts
06-Sep-14 07:44 35.148317 -116.346492 45 22838ft 348kts
06-Sep-14 07:45 35.214658 -116.262915 45 21324ft 339kts
06-Sep-14 07:46 35.279487 -116.181275 45 19881ft 331kts
06-Sep-14 07:47 35.343000 -116.101176 45 18508ft 324kts
06-Sep-14 07:48 35.404941 -116.022890 45 17218ft 318kts
06-Sep-14 07:49 35.465788 -115.945827 45 16003ft 312kts
06-Sep-14 07:50 35.525591 -115.869960 46 14896ft 307kts
06-Sep-14 07:51 35.585161 -115.794863 47 13933ft 308kts
06-Sep-14 07:52 35.647374 -115.722026 38 13164ft 313kts
06-Sep-14 07:53 35.718387 -115.660159 36 12504ft 312kts
06-Sep-14 07:54 35.788462 -115.597902 37 11913ft 308kts
06-Sep-14 07:55 35.857136 -115.535314 37 11413ft 307kts
06-Sep-14 07:56 35.926008 -115.472040 37 11173ft 310kts
06-Sep-14 07:57 35.991630 -115.411651 36 11045ft 287kts
06-Sep-14 07:58 36.028355 -115.331364 90 10996ft 283kts
06-Sep-14 07:59 36.021359 -115.236129 98 9573ft 272kts
06-Sep-14 08:00 36.014477 -115.148881 96 8480ft 237kts
06-Sep-14 08:01 36.007154 -115.068080 96 7569ft 236kts
06-Sep-14 08:02 36.004787 -114.988458 59 6205ft 235kts
06-Sep-14 08:03 36.063994 -114.979577 338 4274ft 230kts
06-Sep-14 08:04 36.072124 -115.049590 264 3484ft 180kts
06-Sep-14 08:05 36.073585 -115.102121 270 2594ft 133kts
06-Sep-14 08:06 36.073618 -115.139051 274 2184ft 25kts
06-Sep-14 08:07 36.074327 -115.139447 63 2184ft 0kts
06-Sep-14 08:08 36.074690 -115.138601 58 2184ft 10kts
06-Sep-14 08:09 36.078259 -115.137785 44 2184ft 15kts
06-Sep-14 08:10 36.080410 -115.136119 70 2184ft 0kts
06-Sep-14 08:11 36.080410 -115.136119 70 2184ft 0kts
06-Sep-14 08:12 36.080410 -115.136119 70 2184ft 0kts

Navigation Log

Ident Type
Flight plan parsing failed, navigation log unavailable